createdAt,value
2023-02-15T00:00:41.518Z,22.15
2023-02-15T00:05:43.183Z,21.23
2023-02-15T00:10:44.827Z,21.90
2023-02-15T00:15:46.745Z,21.20
2023-02-15T00:20:48.346Z,20.63
2023-02-15T00:25:50.981Z,22.08
2023-02-15T00:30:52.633Z,20.30
2023-02-15T00:35:59.599Z,20.80
2023-02-15T00:41:03.020Z,18.90
2023-02-15T00:46:05.986Z,19.63
2023-02-15T00:51:07.741Z,18.85
2023-02-15T00:56:09.368Z,20.73
2023-02-15T01:01:13.805Z,20.40
2023-02-15T01:06:16.761Z,20.95
2023-02-15T01:11:24.317Z,20.23
2023-02-15T01:16:28.749Z,20.77
2023-02-15T01:21:30.597Z,19.52
2023-02-15T01:26:32.257Z,20.92
2023-02-15T01:31:34.557Z,19.70
2023-02-15T01:36:36.346Z,18.98
2023-02-15T01:41:38.018Z,19.60
2023-02-15T01:46:44.065Z,19.75
2023-02-15T01:51:47.285Z,20.42
2023-02-15T01:56:49.095Z,20.42
2023-02-15T02:01:53.480Z,18.13
2023-02-15T02:06:55.622Z,17.63
2023-02-15T02:11:57.306Z,18.77
2023-02-15T02:17:11.526Z,16.80
2023-02-15T02:22:13.088Z,18.45
2023-02-15T02:27:24.605Z,15.52
2023-02-15T02:32:29.072Z,19.63
2023-02-15T02:37:52.696Z,16.38
2023-02-15T02:43:02.869Z,15.77
2023-02-15T02:48:14.791Z,15.50
2023-02-15T02:53:16.455Z,15.45
2023-02-15T02:58:34.496Z,17.15
2023-02-15T03:03:42.480Z,14.73
2023-02-15T03:08:47.745Z,16.60
2023-02-15T03:13:50.258Z,17.83
2023-02-15T03:19:28.787Z,15.75
2023-02-15T03:24:37.518Z,15.75
2023-02-15T03:29:40.330Z,15.40
2023-02-15T03:34:42.631Z,15.27
2023-02-15T03:40:19.267Z,14.52
2023-02-15T03:45:27.257Z,15.90
2023-02-15T03:50:50.008Z,16.42
2023-02-15T03:55:55.068Z,15.38
2023-02-15T04:01:18.822Z,11.68
2023-02-15T04:06:20.564Z,14.32
2023-02-15T04:11:22.174Z,13.75
2023-02-15T04:16:24.757Z,14.13
2023-02-15T04:21:46.860Z,13.75
2023-02-15T04:26:49.094Z,15.93
2023-02-15T04:31:51.594Z,14.55
2023-02-15T04:36:53.246Z,13.80
2023-02-15T04:41:54.890Z,13.57
2023-02-15T04:46:56.557Z,15.13
2023-02-15T04:51:58.168Z,14.40
2023-02-15T04:56:59.814Z,14.95
2023-02-15T05:02:02.836Z,14.10
2023-02-15T05:07:04.457Z,14.05
2023-02-15T05:12:06.312Z,15.65
2023-02-15T05:17:07.960Z,16.08
2023-02-15T05:22:09.949Z,13.02
2023-02-15T05:27:31.064Z,13.95
2023-02-15T05:32:33.058Z,12.35
2023-02-15T05:37:34.971Z,14.60
2023-02-15T05:42:36.609Z,13.77
2023-02-15T05:47:38.335Z,11.65
2023-02-15T05:52:39.995Z,13.20
2023-02-15T05:57:41.686Z,12.13
2023-02-15T06:02:43.437Z,11.48
2023-02-15T06:07:45.830Z,12.98
2023-02-15T06:12:47.455Z,11.07
2023-02-15T06:17:49.091Z,11.90
2023-02-15T06:22:51.141Z,11.52
2023-02-15T06:27:52.780Z,11.35
2023-02-15T06:32:54.434Z,11.50
2023-02-15T06:37:56.117Z,12.52
2023-02-15T06:42:57.723Z,10.10
2023-02-15T06:47:59.305Z,11.02
2023-02-15T06:53:00.918Z,12.13
2023-02-15T06:58:02.520Z,9.65
2023-02-15T07:03:04.156Z,12.10
2023-02-15T07:08:05.851Z,11.07
2023-02-15T07:13:07.456Z,11.13
2023-02-15T07:18:10.059Z,11.05
2023-02-15T07:23:11.665Z,8.82
2023-02-15T07:28:13.271Z,11.18
2023-02-15T07:33:23.837Z,10.68
2023-02-15T07:38:27.141Z,9.95
2023-02-15T07:43:30.276Z,10.93
2023-02-15T07:48:32.450Z,10.25
2023-02-15T07:53:34.363Z,9.30
2023-02-15T07:58:54.874Z,10.98
2023-02-15T08:03:56.806Z,10.27
2023-02-15T08:08:58.496Z,10.15
2023-02-15T08:14:23.051Z,8.15
2023-02-15T08:19:29.921Z,7.38
2023-02-15T08:24:34.113Z,7.68
2023-02-15T08:29:37.282Z,8.90
2023-02-15T08:34:41.782Z,7.93
2023-02-15T08:39:44.409Z,7.35
2023-02-15T08:44:46.016Z,6.38
2023-02-15T08:49:47.701Z,7.70
2023-02-15T08:54:49.282Z,8.82
2023-02-15T08:59:51.957Z,8.52
2023-02-15T09:04:53.760Z,5.95
2023-02-15T09:09:55.541Z,5.63
2023-02-15T09:14:57.143Z,7.43
2023-02-15T09:19:58.793Z,7.57
2023-02-15T09:25:00.633Z,7.95
2023-02-15T09:30:02.313Z,7.53
2023-02-15T09:35:04.073Z,5.43
2023-02-15T09:40:06.364Z,6.43
2023-02-15T09:45:24.797Z,6.22
2023-02-15T09:50:36.760Z,5.88
2023-02-15T09:55:52.536Z,7.03
2023-02-15T10:01:12.524Z,6.10
2023-02-15T10:06:33.817Z,6.00
2023-02-15T10:11:50.092Z,6.93
2023-02-15T10:17:13.987Z,7.80
2023-02-15T10:22:24.894Z,9.20
2023-02-15T10:27:27.455Z,6.95
2023-02-15T10:32:31.896Z,10.20
2023-02-15T10:38:03.463Z,7.72
2023-02-15T10:43:21.635Z,8.30
2023-02-15T10:48:48.043Z,8.00
2023-02-15T10:53:52.736Z,7.65
2023-02-15T10:59:09.471Z,10.48
2023-02-15T11:04:11.017Z,7.65
2023-02-15T11:09:14.314Z,8.15
2023-02-15T11:14:21.741Z,7.35
2023-02-15T11:19:27.557Z,8.15
2023-02-15T11:24:31.246Z,7.45
2023-02-15T11:29:41.002Z,7.60
2023-02-15T11:34:51.693Z,8.00
2023-02-15T11:39:55.702Z,9.30
2023-02-15T11:45:19.522Z,6.75
2023-02-15T11:50:27.168Z,6.13
2023-02-15T11:55:32.197Z,6.63
2023-02-15T12:00:41.237Z,8.00
2023-02-15T12:05:46.063Z,7.25
2023-02-15T12:10:59.286Z,9.13
2023-02-15T12:21:11.109Z,7.20
2023-02-15T12:26:12.803Z,6.85
2023-02-15T12:31:27.482Z,6.95
2023-02-15T12:36:45.509Z,6.25
2023-02-15T12:42:16.854Z,7.57
2023-02-15T12:47:20.337Z,7.07
2023-02-15T12:52:21.893Z,7.93
2023-02-15T12:57:33.747Z,7.32
2023-02-15T13:02:41.541Z,7.43
2023-02-15T13:07:51.632Z,8.20
2023-02-15T13:12:55.301Z,11.23
2023-02-15T13:17:58.926Z,9.07
2023-02-15T13:23:07.352Z,8.40
2023-02-15T13:28:14.926Z,7.72
2023-02-15T13:33:27.755Z,10.02
2023-02-15T13:38:44.478Z,7.70
2023-02-15T13:43:52.385Z,7.88
2023-02-15T13:49:00.082Z,7.95
2023-02-15T13:54:38.616Z,8.75
2023-02-15T13:59:44.339Z,8.13
2023-02-15T14:04:51.823Z,8.80
2023-02-15T14:10:12.199Z,8.13
2023-02-15T14:15:35.333Z,8.73
2023-02-15T14:20:51.111Z,8.65
2023-02-15T14:25:57.037Z,9.15
2023-02-15T14:30:59.402Z,8.88
2023-02-15T14:36:02.925Z,11.98
2023-02-15T14:41:16.535Z,9.95
2023-02-15T14:46:33.868Z,12.18
2023-02-15T14:51:44.694Z,10.07
2023-02-15T14:56:47.349Z,9.30
2023-02-15T15:01:58.898Z,11.10
2023-02-15T15:07:22.633Z,10.02
2023-02-15T15:12:27.291Z,9.57
2023-02-15T15:17:35.010Z,14.35
2023-02-15T15:22:37.158Z,11.65
2023-02-15T15:27:51.176Z,11.15
2023-02-15T15:32:55.964Z,11.32
2023-02-15T15:37:57.564Z,12.23
2023-02-15T15:43:14.405Z,11.88
2023-02-15T15:48:28.575Z,14.75
2023-02-15T15:53:34.581Z,13.38
2023-02-15T15:58:36.288Z,12.45
2023-02-15T16:03:38.104Z,11.45
2023-02-15T16:08:40.895Z,14.52
2023-02-15T16:13:43.662Z,15.25
2023-02-15T16:18:45.566Z,14.38
2023-02-15T16:24:14.901Z,18.42
2023-02-15T16:29:18.413Z,17.40
2023-02-15T16:34:20.167Z,15.30
2023-02-15T16:39:21.873Z,15.05
2023-02-15T16:44:23.588Z,14.18
2023-02-15T16:49:29.464Z,14.65
2023-02-15T16:54:32.392Z,12.82
2023-02-15T16:59:40.800Z,14.73
2023-02-15T17:04:43.271Z,14.30
2023-02-15T17:09:53.377Z,14.23
2023-02-15T17:14:55.811Z,13.07
2023-02-15T17:19:57.541Z,14.63
2023-02-15T17:25:01.746Z,13.40
2023-02-15T17:30:30.959Z,15.45
2023-02-15T17:35:33.423Z,15.38
2023-02-15T17:40:36.976Z,15.10
2023-02-15T17:45:47.626Z,15.82
2023-02-15T17:50:49.585Z,15.48
2023-02-15T17:55:51.672Z,13.95
2023-02-15T18:01:15.150Z,15.90
2023-02-15T18:06:35.477Z,16.25
2023-02-15T18:11:38.028Z,13.80
2023-02-15T18:16:43.257Z,15.80
2023-02-15T18:21:46.374Z,15.52
2023-02-15T18:26:48.466Z,14.70
2023-02-15T18:31:53.426Z,16.42
2023-02-15T18:36:56.568Z,16.38
2023-02-15T18:41:58.266Z,15.13
2023-02-15T18:46:59.913Z,14.63
2023-02-15T18:52:01.959Z,14.25
2023-02-15T18:57:03.924Z,14.25
2023-02-15T19:02:15.455Z,15.98
2023-02-15T19:07:22.822Z,17.92
2023-02-15T19:17:26.179Z,15.55
2023-02-15T19:22:29.855Z,12.48
2023-02-15T19:27:35.763Z,13.45
2023-02-15T19:32:37.391Z,17.75
2023-02-15T19:37:42.542Z,17.20
2023-02-15T19:42:44.356Z,17.98
2023-02-15T19:47:48.154Z,16.42
2023-02-15T19:52:50.339Z,17.20
2023-02-15T19:57:52.732Z,14.55
2023-02-15T20:02:56.728Z,15.70
2023-02-15T20:07:58.622Z,14.60
2023-02-15T20:13:00.551Z,16.35
2023-02-15T20:18:04.100Z,15.60
2023-02-15T20:23:07.464Z,16.60
2023-02-15T20:28:15.560Z,14.65
2023-02-15T20:33:18.521Z,14.65
2023-02-15T20:38:27.036Z,16.35
2023-02-15T20:43:28.756Z,16.77
2023-02-15T20:48:30.578Z,18.77
2023-02-15T20:53:32.501Z,16.90
2023-02-15T20:58:34.657Z,16.02
2023-02-15T21:03:36.333Z,15.20
2023-02-15T21:08:38.019Z,15.52
2023-02-15T21:13:40.137Z,16.23
2023-02-15T21:18:46.489Z,14.57
2023-02-15T21:23:48.586Z,16.25
2023-02-15T21:28:50.497Z,16.48
2023-02-15T21:33:52.460Z,14.80
2023-02-15T21:38:54.162Z,13.63
2023-02-15T21:44:14.449Z,15.52
2023-02-15T21:49:16.198Z,15.00
2023-02-15T21:54:19.597Z,14.63
2023-02-15T21:59:21.255Z,14.88
2023-02-15T22:04:28.641Z,13.75
2023-02-15T22:09:30.977Z,14.00
2023-02-15T22:14:40.704Z,13.05
2023-02-15T22:19:43.117Z,16.10
2023-02-15T22:24:45.449Z,14.73
2023-02-15T22:29:47.114Z,15.02
2023-02-15T22:34:49.305Z,11.70
2023-02-15T22:39:50.941Z,14.32
2023-02-15T22:44:56.394Z,14.20
2023-02-15T22:49:58.114Z,15.13
2023-02-15T22:54:59.724Z,13.85
2023-02-15T23:00:01.601Z,14.07
2023-02-15T23:05:03.261Z,14.18
2023-02-15T23:10:05.391Z,15.52
2023-02-15T23:15:11.018Z,13.32
2023-02-15T23:20:15.639Z,15.07
2023-02-15T23:25:19.572Z,13.00
2023-02-15T23:30:21.359Z,12.50
2023-02-15T23:35:23.056Z,12.60
2023-02-15T23:40:43.392Z,12.05
2023-02-15T23:45:45.117Z,15.23
2023-02-15T23:50:46.858Z,13.07
2023-02-15T23:55:48.557Z,14.00
